Time;durP1;ratioP1;P1;durP2;ratioP2;P2;SDS_P1;SDS_P2;PMS_P1;PMS_P2;Temp;Humidity;BMP_temperature;BMP_pressure;BME280_temperature;BME280_humidity;BME280_pressure;Samples;Min_cycle;Max_cycle;Signal;HPM_P1;HPM_P2
2022/07/14 00:01:24;;;;;;;5.88;2.65;;;27.50;73.00;;;;;;5018242;28;20087;-72
2022/07/14 00:03:50;;;;;;;7.65;3.15;;;27.50;72.90;;;;;;5035559;28;20026;-71
2022/07/14 00:06:16;;;;;;;6.32;3.22;;;27.40;72.70;;;;;;5035422;28;20451;-72
2022/07/14 00:08:43;;;;;;;4.75;2.42;;;27.40;72.60;;;;;;5035466;28;20030;-71
2022/07/14 00:11:10;;;;;;;5.75;2.83;;;27.40;72.40;;;;;;5035153;28;20033;-72
2022/07/14 00:13:36;;;;;;;6.38;2.83;;;27.40;72.80;;;;;;5035481;28;20040;-70
2022/07/14 00:16:03;;;;;;;6.85;3.08;;;27.40;72.90;;;;;;5035392;28;20026;-71
2022/07/14 00:18:29;;;;;;;6.68;2.65;;;27.30;73.10;;;;;;5017355;28;20477;-70
2022/07/14 00:20:55;;;;;;;6.40;3.05;;;27.30;73.30;;;;;;5035352;28;20025;-72
2022/07/14 00:23:22;;;;;;;6.60;3.10;;;27.20;73.60;;;;;;5035192;28;20036;-73
2022/07/14 00:25:47;;;;;;;6.57;2.95;;;27.30;73.60;;;;;;5035098;28;20025;-71
2022/07/14 00:28:13;;;;;;;8.07;3.15;;;27.30;73.30;;;;;;5035148;28;20033;-71
2022/07/14 00:30:39;;;;;;;4.82;2.80;;;27.30;73.10;;;;;;5035270;28;20037;-69
2022/07/14 00:33:04;;;;;;;5.72;3.20;;;27.20;73.20;;;;;;5035471;28;20079;-71
2022/07/14 00:35:31;;;;;;;11.05;3.70;;;27.20;73.20;;;;;;5034954;28;20028;-70
2022/07/14 00:37:57;;;;;;;5.82;3.05;;;27.10;72.90;;;;;;5017558;28;20025;-71
2022/07/14 00:40:22;;;;;;;11.35;3.67;;;27.10;72.80;;;;;;5034932;28;20025;-70
2022/07/14 00:42:49;;;;;;;9.55;3.75;;;27.10;72.20;;;;;;5035384;28;20079;-70
2022/07/14 00:45:17;;;;;;;8.80;3.83;;;27.00;72.00;;;;;;5034795;28;20067;-70
2022/07/14 00:47:44;;;;;;;8.18;4.05;;;26.90;71.80;;;;;;5035033;28;20018;-70
2022/07/14 00:50:12;;;;;;;8.02;3.88;;;26.90;70.90;;;;;;5034731;28;20374;-71
2022/07/14 00:52:39;;;;;;;7.75;3.45;;;26.80;70.60;;;;;;5017128;28;20029;-70
2022/07/14 00:55:05;;;;;;;7.45;3.72;;;26.80;70.00;;;;;;5034742;28;20029;-72
2022/07/14 00:57:31;;;;;;;8.45;3.58;;;26.80;69.20;;;;;;5034803;28;20028;-72
2022/07/14 00:59:57;;;;;;;10.38;3.70;;;26.80;68.50;;;;;;5034545;28;20049;-72
2022/07/14 01:02:23;;;;;;;10.50;3.67;;;26.80;68.00;;;;;;5016835;28;20312;-73
2022/07/14 01:04:49;;;;;;;7.50;3.75;;;26.80;67.30;;;;;;5034414;28;20482;-72
2022/07/14 01:07:16;;;;;;;7.97;4.00;;;26.80;66.90;;;;;;5034653;28;20425;-72
2022/07/14 01:09:43;;;;;;;7.18;3.80;;;26.80;66.50;;;;;;5033593;28;20028;-73
2022/07/14 01:12:10;;;;;;;7.70;3.25;;;26.70;66.20;;;;;;5034258;28;20038;-72
2022/07/14 01:14:37;;;;;;;12.20;3.95;;;26.60;65.80;;;;;;5034601;28;20093;-72
2022/07/14 01:17:04;;;;;;;8.88;3.60;;;26.60;65.80;;;;;;5034325;28;20509;-71
2022/07/14 01:19:29;;;;;;;8.77;3.97;;;26.60;65.70;;;;;;5034633;28;20025;-73
2022/07/14 01:21:56;;;;;;;10.75;3.83;;;26.60;65.60;;;;;;5034330;28;20067;-71
2022/07/14 01:24:22;;;;;;;9.15;3.38;;;26.70;65.30;;;;;;5034358;28;20382;-72
2022/07/14 01:26:49;;;;;;;8.00;3.33;;;26.60;65.10;;;;;;5034136;28;20036;-72
2022/07/14 01:29:15;;;;;;;7.88;3.50;;;26.60;65.10;;;;;;5034358;28;20033;-72
2022/07/14 01:31:41;;;;;;;6.95;3.40;;;26.60;64.90;;;;;;5034273;28;20022;-72
2022/07/14 01:34:07;;;;;;;9.93;3.80;;;26.60;64.70;;;;;;5016279;28;20095;-71
2022/07/14 01:36:33;;;;;;;10.60;3.83;;;26.50;64.70;;;;;;5016280;28;20084;-70
2022/07/14 01:38:59;;;;;;;7.47;3.70;;;26.50;64.70;;;;;;5034090;28;20041;-71
2022/07/14 01:41:25;;;;;;;8.15;4.03;;;26.50;64.70;;;;;;5033667;28;20025;-72
2022/07/14 01:43:51;;;;;;;6.55;3.30;;;26.50;64.60;;;;;;5033662;28;20431;-71
2022/07/14 01:46:16;;;;;;;7.43;2.83;;;26.50;64.40;;;;;;5033574;28;20045;-73
2022/07/14 01:48:42;;;;;;;10.02;3.53;;;26.50;63.90;;;;;;5033483;28;20032;-72
2022/07/14 01:51:08;;;;;;;7.88;3.30;;;26.50;63.50;;;;;;5033577;28;20114;-72
2022/07/14 01:53:34;;;;;;;7.53;3.42;;;26.50;62.70;;;;;;5015958;28;20503;-71
2022/07/14 01:56:00;;;;;;;11.13;3.72;;;26.50;62.50;;;;;;5015813;28;20137;-71
2022/07/14 01:58:26;;;;;;;5.95;3.30;;;26.50;62.30;;;;;;5033743;28;20483;-72
2022/07/14 02:03:37;;;;;;;19.65;3.25;;;26.50;61.60;;;;;;5034112;28;20041;-71
2022/07/14 02:06:04;;;;;;;5.97;3.00;;;26.50;61.00;;;;;;5033548;28;20082;-71
2022/07/14 02:08:30;;;;;;;6.63;3.15;;;26.50;60.50;;;;;;5033884;28;20029;-72
2022/07/14 02:13:40;;;;;;;7.32;3.03;;;26.50;60.60;;;;;;5033716;28;20123;-71
2022/07/14 02:16:06;;;;;;;9.73;2.95;;;26.50;59.80;;;;;;5033074;28;20056;-70
2022/07/14 02:18:32;;;;;;;6.30;3.13;;;26.50;59.80;;;;;;5033194;28;20022;-71
2022/07/14 02:20:58;;;;;;;6.85;3.00;;;26.50;59.10;;;;;;5033250;28;20037;-72
2022/07/14 02:23:24;;;;;;;5.53;2.45;;;26.50;59.10;;;;;;5033235;28;20390;-73
2022/07/14 02:25:50;;;;;;;7.07;2.75;;;26.50;59.30;;;;;;5033046;28;20497;-72
2022/07/14 02:28:16;;;;;;;7.68;2.35;;;26.40;58.80;;;;;;5033234;28;20068;-70
2022/07/14 02:30:42;;;;;;;6.93;2.85;;;26.40;58.50;;;;;;5033209;28;20546;-71
2022/07/14 02:33:09;;;;;;;5.40;2.75;;;26.40;58.50;;;;;;5015183;28;20132;-70
2022/07/14 02:35:35;;;;;;;8.23;2.63;;;26.40;58.10;;;;;;5033192;28;20068;-72
2022/07/14 02:38:01;;;;;;;4.72;2.40;;;26.30;57.90;;;;;;5015389;28;20032;-72
2022/07/14 02:40:26;;;;;;;5.00;2.40;;;26.30;57.60;;;;;;5033131;28;20029;-70
2022/07/14 02:42:52;;;;;;;5.25;2.15;;;26.30;57.60;;;;;;5033066;28;20379;-71
2022/07/14 02:45:19;;;;;;;5.38;2.45;;;26.30;57.50;;;;;;5032885;28;20025;-72
2022/07/14 02:47:45;;;;;;;8.25;2.35;;;26.30;57.50;;;;;;5033206;28;20389;-71
2022/07/14 02:50:11;;;;;;;7.30;2.55;;;26.20;57.60;;;;;;5015184;28;20489;-71
2022/07/14 02:52:37;;;;;;;8.85;2.58;;;26.20;57.50;;;;;;5033042;28;20057;-70
2022/07/14 02:55:03;;;;;;;8.27;2.65;;;26.20;57.30;;;;;;5032851;28;20029;-71
2022/07/14 02:57:29;;;;;;;5.65;2.40;;;26.20;57.50;;;;;;5032977;28;20490;-71
2022/07/14 02:59:55;;;;;;;9.07;2.50;;;26.10;57.40;;;;;;5032684;28;20402;-72
2022/07/14 03:02:21;;;;;;;5.78;2.22;;;26.10;57.70;;;;;;5033152;28;20021;-70
2022/07/14 03:04:47;;;;;;;4.55;2.30;;;26.10;57.60;;;;;;5032777;28;20029;-71
2022/07/14 03:07:13;;;;;;;6.60;2.55;;;26.00;57.60;;;;;;5015114;28;20021;-69
2022/07/14 03:09:39;;;;;;;4.35;2.63;;;26.00;57.60;;;;;;5032986;28;20030;-70
2022/07/14 03:12:04;;;;;;;4.47;2.25;;;26.00;57.50;;;;;;5032664;28;20060;-71
2022/07/14 03:14:30;;;;;;;5.47;2.70;;;26.00;57.40;;;;;;5032739;28;20032;-71
2022/07/14 03:16:56;;;;;;;4.40;2.17;;;25.90;57.40;;;;;;5032605;28;20029;-72
2022/07/14 03:19:21;;;;;;;5.43;2.80;;;25.90;57.20;;;;;;5032813;28;20123;-71
2022/07/14 03:21:47;;;;;;;7.15;2.35;;;25.70;57.30;;;;;;5032734;28;20022;-71
2022/07/14 03:24:13;;;;;;;6.32;2.20;;;25.70;57.50;;;;;;5032827;28;20029;-70
2022/07/14 03:26:39;;;;;;;9.05;2.30;;;25.70;57.40;;;;;;5032690;28;20044;-71
2022/07/14 03:29:05;;;;;;;6.45;2.22;;;25.70;57.30;;;;;;5032369;28;20056;-71
2022/07/14 03:31:31;;;;;;;7.25;2.40;;;25.70;57.40;;;;;;5014975;28;20037;-71
2022/07/14 03:33:57;;;;;;;5.65;2.20;;;25.70;57.40;;;;;;5034621;28;20091;-72
2022/07/14 03:36:23;;;;;;;5.70;2.60;;;25.70;57.10;;;;;;5036112;28;20096;-74
2022/07/14 03:38:49;;;;;;;4.95;2.17;;;25.60;57.20;;;;;;5036356;28;20410;-69
2022/07/14 03:41:14;;;;;;;4.65;2.20;;;25.60;57.10;;;;;;5036083;28;20044;-71
2022/07/14 03:43:40;;;;;;;6.47;2.58;;;25.50;57.20;;;;;;5036139;28;20025;-72
2022/07/14 03:46:07;;;;;;;6.70;2.33;;;25.50;57.10;;;;;;5035969;28;20075;-71
2022/07/14 03:48:33;;;;;;;4.90;2.20;;;25.40;57.20;;;;;;5018201;28;20030;-71
2022/07/14 03:51:00;;;;;;;6.05;2.10;;;25.40;57.30;;;;;;5018415;28;20033;-70
2022/07/14 03:53:26;;;;;;;8.85;2.97;;;25.50;57.10;;;;;;5035711;28;20060;-73
2022/07/14 03:55:52;;;;;;;8.20;3.10;;;25.50;57.50;;;;;;5036296;28;20029;-72
2022/07/14 03:58:18;;;;;;;7.65;3.78;;;25.50;57.30;;;;;;5035690;28;20530;-71
2022/07/14 04:00:43;;;;;;;11.98;3.53;;;25.40;57.40;;;;;;5036574;28;20497;-70
2022/07/14 04:03:11;;;;;;;4.63;2.35;;;25.40;57.30;;;;;;5035678;28;20017;-72
2022/07/14 04:05:37;;;;;;;4.35;2.28;;;25.40;57.50;;;;;;5035353;28;20034;-72
2022/07/14 04:08:03;;;;;;;4.80;2.13;;;25.40;57.30;;;;;;5035996;28;20378;-71
2022/07/14 04:10:29;;;;;;;5.97;2.00;;;25.40;57.30;;;;;;5035306;28;20152;-72
2022/07/14 04:12:56;;;;;;;9.48;2.50;;;25.40;57.30;;;;;;5035209;28;20057;-71
2022/07/14 04:15:23;;;;;;;5.70;2.95;;;25.40;57.30;;;;;;5035315;28;20025;-71
2022/07/14 04:17:49;;;;;;;7.63;2.83;;;25.30;57.40;;;;;;5035553;28;20049;-71
2022/07/14 04:20:15;;;;;;;6.10;2.60;;;25.30;57.50;;;;;;5035547;28;20441;-71
2022/07/14 04:22:40;;;;;;;6.03;2.90;;;25.20;57.50;;;;;;5035449;28;20550;-72
2022/07/14 04:25:09;;;;;;;6.78;2.30;;;25.20;57.40;;;;;;5035455;28;20034;-70
2022/07/14 04:27:35;;;;;;;6.68;2.33;;;25.20;57.80;;;;;;5035518;28;20029;-71
2022/07/14 04:30:00;;;;;;;6.63;2.20;;;25.20;57.70;;;;;;5035376;28;20103;-72
2022/07/14 04:32:27;;;;;;;6.60;2.58;;;25.20;57.70;;;;;;5035477;28;20017;-72
2022/07/14 04:34:52;;;;;;;6.15;2.42;;;25.20;57.70;;;;;;5035157;28;20032;-70
2022/07/14 04:37:18;;;;;;;6.43;2.45;;;25.30;57.50;;;;;;5035393;28;20025;-71
2022/07/14 04:39:44;;;;;;;10.40;3.08;;;25.30;57.50;;;;;;5035237;28;20386;-71
2022/07/14 04:42:10;;;;;;;5.68;2.65;;;25.30;57.80;;;;;;5034810;28;20017;-70
2022/07/14 04:44:35;;;;;;;9.65;2.80;;;25.30;57.90;;;;;;5033893;28;20033;-72
2022/07/14 04:47:01;;;;;;;6.00;2.35;;;25.20;57.90;;;;;;5034467;28;20022;-71
2022/07/14 04:52:11;;;;;;;6.82;3.13;;;25.20;57.90;;;;;;5034755;28;20041;-70
2022/07/14 04:54:37;;;;;;;10.32;2.67;;;25.20;58.20;;;;;;5034417;28;20026;-70
2022/07/14 04:57:06;;;;;;;8.48;2.60;;;25.20;58.20;;;;;;5034689;28;20467;-72
2022/07/14 04:59:32;;;;;;;8.57;2.83;;;25.20;58.40;;;;;;5034825;28;20131;-71
2022/07/14 05:01:58;;;;;;;6.50;2.63;;;25.20;58.40;;;;;;5034592;28;20069;-71
2022/07/14 05:04:23;;;;;;;8.98;2.42;;;25.20;58.30;;;;;;5034652;28;20433;-72
2022/07/14 05:06:50;;;;;;;7.13;2.80;;;25.30;58.10;;;;;;5034598;28;20351;-71
2022/07/14 05:09:18;;;;;;;5.47;2.60;;;25.30;58.10;;;;;;5034262;28;20025;-71
2022/07/14 05:11:45;;;;;;;10.82;2.97;;;25.30;58.00;;;;;;5034444;28;20025;-71
2022/07/14 05:14:11;;;;;;;7.80;2.65;;;25.30;57.90;;;;;;5034178;28;20022;-72
2022/07/14 05:16:38;;;;;;;9.75;3.00;;;25.30;57.90;;;;;;5034084;28;20433;-72
2022/07/14 05:19:04;;;;;;;8.27;2.92;;;25.30;57.90;;;;;;5016369;28;20040;-73
2022/07/14 05:21:30;;;;;;;11.02;3.25;;;25.50;57.70;;;;;;5034033;28;20025;-71
2022/07/14 05:23:57;;;;;;;8.15;3.08;;;25.60;57.40;;;;;;5034067;28;20051;-73
2022/07/14 05:26:23;;;;;;;7.65;2.55;;;25.90;57.10;;;;;;5034117;28;20433;-71
2022/07/14 05:28:49;;;;;;;5.70;2.30;;;26.10;56.30;;;;;;5034344;28;20029;-71
2022/07/14 05:31:15;;;;;;;7.93;3.03;;;26.40;56.00;;;;;;5034281;28;20033;-71
2022/07/14 05:33:41;;;;;;;5.25;2.47;;;26.90;55.20;;;;;;5034112;28;20155;-71
2022/07/14 05:36:07;;;;;;;7.57;2.55;;;27.30;53.90;;;;;;5034113;28;20067;-71
2022/07/14 05:38:32;;;;;;;7.90;2.63;;;27.50;53.10;;;;;;5033905;28;20032;-72
2022/07/14 05:41:02;;;;;;;9.45;2.80;;;28.00;52.50;;;;;;5033691;28;20108;-72
2022/07/14 05:43:28;;;;;;;7.68;2.80;;;28.20;51.30;;;;;;5033942;28;20053;-73
2022/07/14 05:45:54;;;;;;;7.68;2.50;;;28.40;51.00;;;;;;5033786;28;20096;-71
2022/07/14 05:48:20;;;;;;;7.47;2.28;;;28.70;51.00;;;;;;5033871;28;20053;-73
2022/07/14 05:50:45;;;;;;;6.28;2.55;;;28.80;50.50;;;;;;5033474;28;20033;-71
2022/07/14 05:53:11;;;;;;;7.05;2.40;;;29.00;49.90;;;;;;5033820;28;20095;-72
2022/07/14 05:55:37;;;;;;;11.75;2.80;;;29.30;49.60;;;;;;5033357;28;20092;-71
2022/07/14 05:58:03;;;;;;;10.10;3.15;;;29.30;49.40;;;;;;5033424;28;20517;-73
2022/07/14 06:00:28;;;;;;;7.68;2.63;;;29.40;48.90;;;;;;5033551;28;20041;-74
2022/07/14 06:02:54;;;;;;;13.38;3.00;;;29.60;48.70;;;;;;5033578;28;20026;-73
2022/07/14 06:05:20;;;;;;;9.50;2.40;;;29.70;48.60;;;;;;5033073;28;20029;-72
2022/07/14 06:07:45;;;;;;;7.30;2.60;;;29.80;48.50;;;;;;5033921;28;20075;-71
2022/07/14 06:10:12;;;;;;;11.32;2.63;;;29.90;48.50;;;;;;5033094;28;20036;-71
2022/07/14 06:12:38;;;;;;;6.60;2.85;;;30.00;49.60;;;;;;5033247;28;20045;-70
2022/07/14 06:15:05;;;;;;;7.68;2.22;;;30.00;48.60;;;;;;5015321;28;20116;-71
2022/07/14 06:17:32;;;;;;;8.38;2.63;;;30.20;48.20;;;;;;5033144;28;20089;-72
2022/07/14 06:20:05;;;;;;;9.13;2.88;;;30.40;48.10;;;;;;5033394;28;20045;-70
2022/07/14 06:22:35;;;;;;;5.72;2.42;;;30.60;48.00;;;;;;5033265;28;20068;-70
2022/07/14 06:25:01;;;;;;;9.38;2.90;;;30.90;48.10;;;;;;5033003;28;20049;-70
2022/07/14 06:27:27;;;;;;;8.35;2.60;;;31.10;47.80;;;;;;5033265;28;20442;-71
2022/07/14 06:29:52;;;;;;;10.85;3.00;;;31.30;47.20;;;;;;5033140;28;20037;-71
2022/07/14 06:32:18;;;;;;;5.90;2.50;;;31.30;47.40;;;;;;5033007;28;20040;-72
2022/07/14 06:34:45;;;;;;;9.98;2.40;;;31.40;47.50;;;;;;5032798;28;20159;-72
2022/07/14 06:37:11;;;;;;;5.50;2.30;;;31.40;47.80;;;;;;5032875;28;20017;-72
2022/07/14 06:39:37;;;;;;;8.93;2.95;;;31.30;47.80;;;;;;5033100;28;20022;-74
2022/07/14 06:42:03;;;;;;;6.43;2.53;;;31.30;48.00;;;;;;5040209;28;20031;-73
2022/07/14 06:44:30;;;;;;;5.88;2.35;;;31.50;48.60;;;;;;5033358;28;20028;-71
2022/07/14 06:46:56;;;;;;;9.00;2.70;;;31.60;48.10;;;;;;5033523;28;20029;-72
2022/07/14 06:49:22;;;;;;;14.52;2.60;;;31.70;47.90;;;;;;5033066;28;20021;-72
2022/07/14 06:51:48;;;;;;;9.57;2.45;;;31.80;47.80;;;;;;5032983;28;20466;-71
2022/07/14 06:54:15;;;;;;;12.50;2.47;;;31.90;47.20;;;;;;5032825;28;20474;-72
2022/07/14 06:56:41;;;;;;;7.78;2.72;;;32.00;47.30;;;;;;5035442;28;20486;-72
2022/07/14 06:59:07;;;;;;;8.15;2.50;;;32.00;47.20;;;;;;5034277;28;20100;-74
2022/07/14 07:01:34;;;;;;;6.13;2.35;;;32.20;47.40;;;;;;5033064;28;20026;-72
2022/07/14 07:03:59;;;;;;;10.60;2.72;;;32.20;47.50;;;;;;5033083;28;20040;-73
2022/07/14 07:06:43;;;;;;;8.32;2.63;;;32.20;47.30;;;;;;5032901;28;20026;-72
2022/07/14 07:09:09;;;;;;;7.72;2.30;;;32.40;46.70;;;;;;5017166;28;20117;-72
2022/07/14 07:11:35;;;;;;;7.55;2.60;;;32.70;46.90;;;;;;5036791;28;20108;-72
2022/07/14 07:14:01;;;;;;;9.70;2.50;;;32.80;46.90;;;;;;5036885;28;20146;-74
2022/07/14 07:16:28;;;;;;;10.32;2.28;;;32.80;47.00;;;;;;5036905;28;20019;-73
2022/07/14 07:18:53;;;;;;;8.30;2.35;;;32.90;46.40;;;;;;5036617;28;20085;-72
2022/07/14 07:21:20;;;;;;;8.25;2.55;;;33.00;46.50;;;;;;5036636;28;20017;-71
2022/07/14 07:23:47;;;;;;;10.82;2.40;;;33.00;47.20;;;;;;5036490;28;20041;-72
2022/07/14 07:26:14;;;;;;;11.15;2.55;;;32.90;46.40;;;;;;5036562;28;20378;-71
2022/07/14 07:28:40;;;;;;;8.85;2.63;;;33.00;46.10;;;;;;5036369;28;20033;-72
2022/07/14 07:31:06;;;;;;;5.75;2.38;;;33.10;45.80;;;;;;5036355;28;20033;-73
2022/07/14 07:33:32;;;;;;;5.68;2.10;;;33.10;45.40;;;;;;5036588;28;20081;-70
2022/07/14 07:36:00;;;;;;;5.68;2.08;;;33.10;45.10;;;;;;5036199;28;20076;-71
2022/07/14 07:38:26;;;;;;;7.43;2.25;;;33.20;44.70;;;;;;5036440;28;20018;-71
2022/07/14 07:40:53;;;;;;;7.43;2.40;;;33.20;44.40;;;;;;5036180;28;20026;-71
2022/07/14 07:43:22;;;;;;;7.70;2.30;;;33.20;44.30;;;;;;5035907;28;20040;-71
2022/07/14 07:45:48;;;;;;;8.63;2.50;;;33.20;44.30;;;;;;5036074;28;20033;-72
2022/07/14 07:48:14;;;;;;;5.45;2.20;;;33.30;44.30;;;;;;5036247;28;20159;-72
2022/07/14 07:50:44;;;;;;;8.68;2.63;;;33.30;44.30;;;;;;5035850;28;20429;-72
2022/07/14 07:53:10;;;;;;;12.45;2.63;;;33.30;44.20;;;;;;5035929;28;20102;-73
2022/07/14 07:55:36;;;;;;;5.38;1.90;;;33.20;44.20;;;;;;5035690;28;20026;-70
2022/07/14 07:58:02;;;;;;;5.18;2.15;;;33.20;44.20;;;;;;5035742;28;20040;-72
2022/07/14 08:00:30;;;;;;;6.78;2.10;;;33.10;44.20;;;;;;5018354;28;20041;-71
2022/07/14 08:02:57;;;;;;;5.93;3.15;;;33.00;44.30;;;;;;5035933;28;20033;-71
2022/07/14 08:05:25;;;;;;;6.47;2.20;;;32.80;44.30;;;;;;5035973;28;20052;-72
2022/07/14 08:07:52;;;;;;;7.40;2.22;;;32.70;45.60;;;;;;5035762;28;20057;-71
2022/07/14 08:10:18;;;;;;;5.82;1.75;;;32.60;44.10;;;;;;5035758;28;20501;-72
2022/07/14 08:12:45;;;;;;;30.80;4.53;;;32.50;44.00;;;;;;5035607;28;20032;-74
2022/07/14 08:15:12;;;;;;;7.55;2.55;;;32.50;44.10;;;;;;5035592;28;20029;-73
2022/07/14 08:17:38;;;;;;;6.22;2.35;;;32.40;44.20;;;;;;5017396;28;20025;-72
2022/07/14 08:20:10;;;;;;;6.22;2.60;;;32.30;44.30;;;;;;5017283;28;20109;-73
2022/07/14 08:22:37;;;;;;;6.25;2.42;;;32.20;44.10;;;;;;5017675;28;20030;-73
2022/07/14 08:25:05;;;;;;;10.50;2.45;;;32.20;44.40;;;;;;5035019;28;20031;-73
2022/07/14 08:27:31;;;;;;;9.43;2.63;;;32.10;44.40;;;;;;5017521;28;20079;-73
2022/07/14 08:29:56;;;;;;;8.05;2.42;;;32.00;44.30;;;;;;5035236;28;20033;-72
2022/07/14 08:32:44;;;;;;;12.35;3.00;;;32.00;45.20;;;;;;5035465;28;20033;-72
2022/07/14 08:35:13;;;;;;;10.25;3.15;;;32.00;44.40;;;;;;5035264;28;20025;-73
2022/07/14 08:37:39;;;;;;;7.30;2.40;;;31.90;44.60;;;;;;5035454;28;20037;-73
2022/07/14 08:40:07;;;;;;;12.45;2.40;;;31.90;44.40;;;;;;5035317;28;20370;-73
2022/07/14 08:42:35;;;;;;;7.55;2.47;;;31.90;44.10;;;;;;5035395;28;20382;-72
2022/07/14 08:45:07;;;;;;;7.78;2.35;;;31.90;44.10;;;;;;5034830;28;20029;-73
2022/07/14 08:47:35;;;;;;;10.27;2.10;;;31.80;43.90;;;;;;5035123;28;20026;-71
2022/07/14 08:50:07;;;;;;;6.47;2.03;;;31.60;44.40;;;;;;5035326;28;20390;-71
2022/07/14 08:52:33;;;;;;;6.72;2.17;;;31.60;43.80;;;;;;5035685;28;20017;-72
2022/07/14 08:54:59;;;;;;;8.38;2.20;;;31.50;44.10;;;;;;5043513;28;20025;-72
2022/07/14 08:57:26;;;;;;;10.52;2.50;;;31.40;44.40;;;;;;5051830;28;20064;-73
2022/07/14 08:59:51;;;;;;;6.35;1.90;;;31.50;44.40;;;;;;5038144;28;20068;-71
2022/07/14 09:02:17;;;;;;;8.23;2.03;;;31.40;44.20;;;;;;5034926;28;20021;-73
2022/07/14 09:04:46;;;;;;;7.63;2.50;;;31.40;43.90;;;;;;5017226;28;20041;-73
2022/07/14 09:07:32;;;;;;;5.90;2.05;;;31.30;44.00;;;;;;5034968;28;20025;-72
2022/07/14 09:10:13;;;;;;;8.85;2.53;;;31.20;44.10;;;;;;5034291;28;20363;-73
2022/07/14 09:12:41;;;;;;;9.77;2.50;;;31.30;43.60;;;;;;5034243;28;20048;-71
2022/07/14 09:17:58;;;;;;;8.52;2.83;;;31.40;44.20;;;;;;5033907;28;20088;-72
2022/07/14 09:20:28;;;;;;;5.07;2.30;;;31.40;44.30;;;;;;5034210;28;20364;-73
2022/07/14 09:22:56;;;;;;;6.82;2.33;;;31.50;44.30;;;;;;5034075;28;20029;-73
2022/07/14 09:25:23;;;;;;;4.88;1.90;;;31.50;44.10;;;;;;5034278;28;20490;-73
2022/07/14 09:27:49;;;;;;;4.90;2.25;;;31.50;44.10;;;;;;5034132;28;20462;-71
2022/07/14 09:30:16;;;;;;;6.40;2.20;;;31.40;43.90;;;;;;5033854;28;20044;-74
2022/07/14 09:32:57;;;;;;;7.50;2.15;;;31.30;43.90;;;;;;5033626;28;20096;-72
2022/07/14 09:35:33;;;;;;;8.93;2.60;;;31.40;43.50;;;;;;5034319;28;20585;-71
2022/07/14 09:38:01;;;;;;;8.63;2.40;;;31.50;43.90;;;;;;5033546;28;20113;-72
2022/07/14 09:40:30;;;;;;;6.70;2.15;;;31.50;43.60;;;;;;5034076;28;20490;-72
2022/07/14 09:43:00;;;;;;;9.95;2.65;;;31.60;43.40;;;;;;5033904;28;20108;-73
2022/07/14 09:45:34;;;;;;;8.50;2.47;;;31.60;43.40;;;;;;5016017;28;20381;-72
2022/07/14 09:48:11;;;;;;;4.07;2.30;;;31.70;42.60;;;;;;5034004;28;20035;-73
2022/07/14 09:50:44;;;;;;;6.78;2.30;;;31.60;42.00;;;;;;5033962;28;20033;-73
2022/07/14 09:53:17;;;;;;;6.28;2.00;;;31.70;41.30;;;;;;5033938;28;20076;-73
2022/07/14 09:55:53;;;;;;;8.05;2.08;;;31.70;41.80;;;;;;5048982;28;20115;-74
2022/07/14 09:58:31;;;;;;;5.38;2.35;;;31.60;41.00;;;;;;5033600;28;20052;-73
2022/07/14 10:00:59;;;;;;;4.50;2.42;;;31.50;41.10;;;;;;5033681;28;20033;-73
2022/07/14 10:03:27;;;;;;;7.55;2.45;;;31.60;41.30;;;;;;5034010;28;20375;-72
2022/07/14 10:05:54;;;;;;;5.50;2.40;;;31.60;41.20;;;;;;5033473;28;20033;-74
2022/07/14 10:08:25;;;;;;;6.78;2.65;;;31.60;41.40;;;;;;5034004;28;20382;-72
2022/07/14 10:10:54;;;;;;;7.40;2.30;;;31.60;41.50;;;;;;5033845;28;20029;-71
2022/07/14 10:13:20;;;;;;;6.68;2.58;;;31.70;41.60;;;;;;5034235;28;20163;-72
2022/07/14 10:15:51;;;;;;;5.32;2.47;;;31.80;41.40;;;;;;5033967;28;20532;-73
2022/07/14 10:18:18;;;;;;;6.75;2.65;;;32.00;41.40;;;;;;5033495;28;20013;-74
2022/07/14 10:20:51;;;;;;;6.75;2.40;;;32.00;41.20;;;;;;5033601;28;20490;-73
2022/07/14 10:23:18;;;;;;;7.65;2.85;;;32.10;41.70;;;;;;5033342;28;20199;-73
2022/07/14 10:25:49;;;;;;;6.57;2.58;;;32.10;41.20;;;;;;5033750;28;20030;-72
2022/07/14 10:28:16;;;;;;;7.68;2.60;;;32.20;41.10;;;;;;5033786;28;20025;-73
2022/07/14 10:30:56;;;;;;;7.85;2.55;;;32.30;40.70;;;;;;5033578;28;20109;-72
2022/07/14 10:33:50;;;;;;;5.15;2.20;;;32.20;41.00;;;;;;5033249;28;20021;-72
2022/07/14 10:36:28;;;;;;;7.10;2.55;;;32.20;41.10;;;;;;5006219;28;20390;-79
2022/07/14 10:39:15;;;;;;;12.60;2.60;;;32.20;41.00;;;;;;5033567;28;20043;-75
2022/07/14 10:41:54;;;;;;;47.83;6.85;;;32.30;42.30;;;;;;5033879;28;20026;-76
2022/07/14 10:44:23;;;;;;;19.00;2.95;;;32.40;43.20;;;;;;5037743;28;20032;-76
2022/07/14 10:46:51;;;;;;;132.75;12.88;;;32.50;44.10;;;;;;5037518;28;20067;-79
2022/07/14 10:49:18;;;;;;;54.88;7.25;;;32.50;44.70;;;;;;5037956;28;20100;-79
2022/07/14 10:51:49;;;;;;;24.40;4.38;;;32.50;45.20;;;;;;5020687;28;20443;-78
2022/07/14 10:54:16;;;;;;;7.15;2.83;;;32.50;45.40;;;;;;5037493;28;20022;-79
2022/07/14 10:56:44;;;;;;;23.98;3.67;;;32.50;45.40;;;;;;5019372;28;20402;-80
2022/07/14 10:59:30;;;;;;;24.48;4.43;;;32.50;45.70;;;;;;5037942;28;20061;-78
2022/07/14 11:02:14;;;;;;;85.32;8.95;;;32.50;45.40;;;;;;5037611;28;20426;-79
2022/07/14 11:04:58;;;;;;;13.80;3.03;;;32.50;45.80;;;;;;5036963;28;20028;-79
2022/07/14 11:07:46;;;;;;;29.05;4.15;;;32.60;46.20;;;;;;5039713;28;20029;-76
2022/07/14 11:10:18;;;;;;;10.13;3.90;;;32.70;45.60;;;;;;5049590;28;20473;-76
2022/07/14 11:12:59;;;;;;;8.73;3.10;;;32.70;45.60;;;;;;5041852;28;20034;-82
2022/07/14 11:16:03;;;;;;;7.80;2.67;;;32.80;45.90;;;;;;5038488;28;20467;-75
2022/07/14 11:18:37;;;;;;;10.45;2.58;;;32.80;46.10;;;;;;5036568;28;20120;-79
2022/07/14 11:21:19;;;;;;;9.48;3.40;;;32.80;45.50;;;;;;5036836;28;20410;-81
2022/07/14 11:23:54;;;;;;;6.80;2.30;;;32.80;45.30;;;;;;5036639;28;20072;-80
2022/07/14 11:26:32;;;;;;;10.68;2.75;;;32.80;45.60;;;;;;5036786;28;20026;-76
2022/07/14 11:29:08;;;;;;;7.32;2.70;;;32.80;45.80;;;;;;5036661;28;20489;-79
2022/07/14 11:31:45;;;;;;;5.07;2.47;;;32.90;45.80;;;;;;5036472;28;20042;-76
2022/07/14 11:37:26;;;;;;;6.38;2.47;;;32.80;45.90;;;;;;4956318;29;20051;-79
2022/07/14 11:39:51;;;;;;;6.05;2.72;;;32.70;45.90;;;;;;5019600;28;20041;-81
2022/07/14 11:42:17;;;;;;;6.43;2.40;;;32.70;45.80;;;;;;5036504;28;20053;-76
2022/07/14 11:44:48;;;;;;;7.82;2.75;;;32.80;46.40;;;;;;5018292;28;20542;-76
2022/07/14 11:47:22;;;;;;;9.32;2.80;;;32.80;46.20;;;;;;5036327;28;20052;-76
2022/07/14 11:50:04;;;;;;;11.15;2.90;;;32.90;46.00;;;;;;5036718;28;20038;-79
2022/07/14 11:52:35;;;;;;;6.80;2.70;;;32.90;47.20;;;;;;5036305;28;20053;-78
2022/07/14 11:55:06;;;;;;;5.80;2.47;;;32.90;45.90;;;;;;5035905;28;20425;-71
2022/07/14 11:57:31;;;;;;;5.93;2.55;;;33.00;46.50;;;;;;5036106;28;20029;-74
2022/07/14 12:00:09;;;;;;;8.38;2.80;;;33.10;46.90;;;;;;5035766;28;20058;-74
2022/07/14 12:02:53;;;;;;;6.07;2.40;;;33.20;46.60;;;;;;5036135;28;20466;-73
2022/07/14 12:05:24;;;;;;;6.50;2.42;;;33.30;46.70;;;;;;5035497;28;20083;-74
2022/07/14 12:07:52;;;;;;;6.07;2.33;;;33.20;46.90;;;;;;5035515;28;20079;-75
2022/07/14 12:10:36;;;;;;;7.38;2.60;;;33.10;47.30;;;;;;5017552;28;20037;-72
2022/07/14 12:13:03;;;;;;;5.45;2.45;;;33.10;47.30;;;;;;5035853;28;20021;-74
2022/07/14 12:15:30;;;;;;;7.30;2.85;;;33.20;47.40;;;;;;5035404;28;20140;-74
2022/07/14 12:17:56;;;;;;;8.85;2.85;;;33.20;47.60;;;;;;5035721;28;20044;-74
2022/07/14 12:20:24;;;;;;;7.25;2.90;;;33.20;47.30;;;;;;5017645;28;20025;-75
2022/07/14 12:22:54;;;;;;;7.13;2.90;;;33.20;47.30;;;;;;5035582;28;20029;-76
2022/07/14 12:25:37;;;;;;;6.25;2.58;;;33.20;47.40;;;;;;5035518;28;20366;-74
2022/07/14 12:28:06;;;;;;;7.07;2.60;;;33.20;47.10;;;;;;5035247;28;20325;-73
2022/07/14 12:30:51;;;;;;;7.75;2.65;;;33.20;47.80;;;;;;5035172;28;20056;-74
2022/07/14 12:33:24;;;;;;;5.97;2.65;;;33.20;47.50;;;;;;5035336;28;20037;-75
2022/07/14 12:35:52;;;;;;;5.50;2.55;;;33.20;47.50;;;;;;5017809;28;20025;-74
2022/07/14 12:38:19;;;;;;;7.70;2.88;;;33.20;48.10;;;;;;5035304;28;20060;-73
2022/07/14 12:41:08;;;;;;;6.53;2.97;;;33.20;48.10;;;;;;5035347;28;20025;-75
2022/07/14 12:43:36;;;;;;;5.80;3.40;;;33.20;47.50;;;;;;5017063;28;20034;-75
2022/07/14 12:46:18;;;;;;;5.38;3.22;;;33.30;48.00;;;;;;5035022;28;20059;-73
2022/07/14 12:48:49;;;;;;;5.60;3.03;;;33.30;47.40;;;;;;5035472;28;20025;-74
2022/07/14 12:51:22;;;;;;;4.93;2.70;;;33.50;48.00;;;;;;5035013;28;20041;-74
2022/07/14 12:54:06;;;;;;;3.22;2.25;;;33.40;47.90;;;;;;5034558;28;20363;-75
2022/07/14 12:56:43;;;;;;;6.15;2.72;;;33.40;48.50;;;;;;5034864;28;20074;-73
2022/07/14 12:59:11;;;;;;;6.60;2.60;;;33.40;48.30;;;;;;5034590;28;20056;-74
2022/07/14 13:01:53;;;;;;;6.43;2.80;;;33.30;48.90;;;;;;5034471;28;20033;-75
2022/07/14 13:04:35;;;;;;;7.15;2.63;;;33.20;48.60;;;;;;5034394;28;20030;-75
2022/07/14 13:07:20;;;;;;;7.65;2.80;;;33.20;48.60;;;;;;5033714;28;20046;-75